Terminal Aerodrome Forecast
Issued by NWS

Home | Current Version | Previous Version | Text Only | Print | Product List | Glossary On
Versions: 1 2 3 4 5 6 7 8 9 10 11 12 13 14 15 16 17 18 19 20 21 22 23 24 25 26 27 28 29 30 31 32 33 34 35 36 37 38 39 40 41 42 43 44 45 46 47 48 49 50
000
FTAK31 PANC 252336
TAFAAQ
TAF
PAAQ 252336Z 2600/2624 36010KT P6SM VCSH SCT025 OVC045
      TEMPO 2600/2604 3SM -SHSN BR SCT015 BKN025
     FM261200 36007KT P6SM SCT050 BKN080
     FM262000 35005KT 2SM -SHSN BR BKN015=

USA.gov is the U.S. government's official web portal to all federal, state and local government web resources and services.